Pearcot, Washington
Current Conditions -  °F | °C
As of 2:55 PM on Saturday 20 Dec 2014 (Local Time) from KEAT Reporting Station
Unknown Precip Unknown Precip  
Wind Chill:   Ceiling: 200
Heat Index:   Visibility: 7mi
Dew Point:   Wind: 5mph
Humidity: 89%   Direction: 280°W
Pressure: 29.66"   Gusts: NA
Location:  47.3635°N, 120.348°W
Report Text: KEAT 202255Z AUTO 28004KT 7SM UP BKN002 OVC015 02/01 A2966 RMK AO2 RAE23UPB03 SLP053 P0000 T00220006
Loading
Personal Weather Stations






























Interactive Weather Map New forecast layout! Learn more

10-Day Weather Forecast

Advertisements
Track Severe Weather on mobile